sensor_id;sensor_type;location;lat;lon;timestamp;P1;durP1;ratioP1;P2;durP2;ratioP2
6292;SDS011;3179;54.350;10.102;2023-07-20T00:01:49;2.20;;;1.00;;
6292;SDS011;3179;54.350;10.102;2023-07-20T00:04:16;0.90;;;0.90;;
6292;SDS011;3179;54.350;10.102;2023-07-20T00:06:42;1.17;;;1.10;;
6292;SDS011;3179;54.350;10.102;2023-07-20T00:09:10;2.50;;;1.00;;
6292;SDS011;3179;54.350;10.102;2023-07-20T00:11:37;1.10;;;1.00;;
6292;SDS011;3179;54.350;10.102;2023-07-20T00:14:04;1.43;;;1.17;;
6292;SDS011;3179;54.350;10.102;2023-07-20T00:16:32;2.20;;;1.10;;
6292;SDS011;3179;54.350;10.102;2023-07-20T00:18:59;1.00;;;1.00;;
6292;SDS011;3179;54.350;10.102;2023-07-20T00:21:26;0.80;;;0.80;;
6292;SDS011;3179;54.350;10.102;2023-07-20T00:23:53;1.20;;;1.10;;
6292;SDS011;3179;54.350;10.102;2023-07-20T00:26:19;0.90;;;0.90;;
6292;SDS011;3179;54.350;10.102;2023-07-20T00:28:46;1.60;;;1.20;;
6292;SDS011;3179;54.350;10.102;2023-07-20T00:31:14;1.60;;;1.27;;
6292;SDS011;3179;54.350;10.102;2023-07-20T00:33:42;1.40;;;1.00;;
6292;SDS011;3179;54.350;10.102;2023-07-20T00:36:09;1.30;;;1.10;;
6292;SDS011;3179;54.350;10.102;2023-07-20T00:38:36;1.63;;;1.10;;
6292;SDS011;3179;54.350;10.102;2023-07-20T00:41:03;1.43;;;1.07;;
6292;SDS011;3179;54.350;10.102;2023-07-20T00:43:30;1.20;;;1.10;;
6292;SDS011;3179;54.350;10.102;2023-07-20T00:45:56;0.80;;;0.73;;
6292;SDS011;3179;54.350;10.102;2023-07-20T00:48:23;1.27;;;1.17;;
6292;SDS011;3179;54.350;10.102;2023-07-20T00:50:51;1.20;;;1.10;;
6292;SDS011;3179;54.350;10.102;2023-07-20T00:53:18;1.07;;;1.00;;
6292;SDS011;3179;54.350;10.102;2023-07-20T00:55:45;0.70;;;0.70;;
6292;SDS011;3179;54.350;10.102;2023-07-20T00:58:12;1.67;;;0.90;;
6292;SDS011;3179;54.350;10.102;2023-07-20T01:00:39;1.63;;;1.17;;
6292;SDS011;3179;54.350;10.102;2023-07-20T01:03:05;1.33;;;1.23;;
6292;SDS011;3179;54.350;10.102;2023-07-20T01:05:35;1.13;;;1.03;;
6292;SDS011;3179;54.350;10.102;2023-07-20T01:08:09;1.10;;;1.00;;
6292;SDS011;3179;54.350;10.102;2023-07-20T01:10:42;1.00;;;1.00;;
6292;SDS011;3179;54.350;10.102;2023-07-20T01:13:12;1.83;;;1.27;;
6292;SDS011;3179;54.350;10.102;2023-07-20T01:15:41;1.20;;;1.10;;
6292;SDS011;3179;54.350;10.102;2023-07-20T01:18:08;1.23;;;1.13;;
6292;SDS011;3179;54.350;10.102;2023-07-20T01:20:35;1.47;;;1.30;;
6292;SDS011;3179;54.350;10.102;2023-07-20T01:26:24;1.03;;;1.03;;
6292;SDS011;3179;54.350;10.102;2023-07-20T01:29:11;1.17;;;1.17;;
6292;SDS011;3179;54.350;10.102;2023-07-20T01:31:58;1.20;;;1.10;;
6292;SDS011;3179;54.350;10.102;2023-07-20T01:34:28;1.20;;;1.00;;
6292;SDS011;3179;54.350;10.102;2023-07-20T01:36:56;0.87;;;0.87;;
6292;SDS011;3179;54.350;10.102;2023-07-20T01:39:24;1.77;;;1.30;;
6292;SDS011;3179;54.350;10.102;2023-07-20T01:41:51;1.33;;;1.23;;
6292;SDS011;3179;54.350;10.102;2023-07-20T01:44:19;1.67;;;1.40;;
6292;SDS011;3179;54.350;10.102;2023-07-20T01:46:46;1.13;;;1.07;;
6292;SDS011;3179;54.350;10.102;2023-07-20T01:49:14;1.37;;;1.27;;
6292;SDS011;3179;54.350;10.102;2023-07-20T01:51:40;1.00;;;1.00;;
6292;SDS011;3179;54.350;10.102;2023-07-20T01:54:07;1.63;;;1.53;;
6292;SDS011;3179;54.350;10.102;2023-07-20T01:56:34;1.50;;;1.40;;
6292;SDS011;3179;54.350;10.102;2023-07-20T01:59:01;1.40;;;1.30;;
6292;SDS011;3179;54.350;10.102;2023-07-20T02:01:27;1.73;;;1.63;;
6292;SDS011;3179;54.350;10.102;2023-07-20T02:03:54;1.53;;;1.40;;
6292;SDS011;3179;54.350;10.102;2023-07-20T02:06:22;3.00;;;1.50;;
6292;SDS011;3179;54.350;10.102;2023-07-20T02:08:49;2.00;;;1.40;;
6292;SDS011;3179;54.350;10.102;2023-07-20T02:11:16;0.90;;;0.87;;
6292;SDS011;3179;54.350;10.102;2023-07-20T02:13:42;1.20;;;1.10;;
6292;SDS011;3179;54.350;10.102;2023-07-20T02:16:09;1.10;;;1.10;;
6292;SDS011;3179;54.350;10.102;2023-07-20T02:18:36;4.37;;;1.73;;
6292;SDS011;3179;54.350;10.102;2023-07-20T02:21:04;1.80;;;1.40;;
6292;SDS011;3179;54.350;10.102;2023-07-20T02:23:32;1.10;;;1.10;;
6292;SDS011;3179;54.350;10.102;2023-07-20T02:25:58;1.33;;;1.10;;
6292;SDS011;3179;54.350;10.102;2023-07-20T02:28:25;1.73;;;1.47;;
6292;SDS011;3179;54.350;10.102;2023-07-20T02:30:52;1.40;;;1.30;;
6292;SDS011;3179;54.350;10.102;2023-07-20T02:33:19;1.30;;;1.30;;
6292;SDS011;3179;54.350;10.102;2023-07-20T02:35:46;1.63;;;1.13;;
6292;SDS011;3179;54.350;10.102;2023-07-20T02:38:13;1.33;;;1.10;;
6292;SDS011;3179;54.350;10.102;2023-07-20T02:40:41;1.10;;;1.10;;
6292;SDS011;3179;54.350;10.102;2023-07-20T02:43:08;1.43;;;1.30;;
6292;SDS011;3179;54.350;10.102;2023-07-20T02:45:35;1.20;;;1.10;;
6292;SDS011;3179;54.350;10.102;2023-07-20T02:48:05;1.17;;;1.07;;
6292;SDS011;3179;54.350;10.102;2023-07-20T02:50:33;1.40;;;1.30;;
6292;SDS011;3179;54.350;10.102;2023-07-20T02:53:00;0.90;;;0.90;;
6292;SDS011;3179;54.350;10.102;2023-07-20T02:55:27;1.30;;;1.20;;
6292;SDS011;3179;54.350;10.102;2023-07-20T02:57:55;0.93;;;0.93;;
6292;SDS011;3179;54.350;10.102;2023-07-20T03:00:22;1.40;;;1.30;;
6292;SDS011;3179;54.350;10.102;2023-07-20T03:02:49;1.17;;;1.07;;
6292;SDS011;3179;54.350;10.102;2023-07-20T03:05:20;1.00;;;1.00;;
6292;SDS011;3179;54.350;10.102;2023-07-20T03:07:47;4.47;;;1.33;;
6292;SDS011;3179;54.350;10.102;2023-07-20T03:10:15;1.70;;;1.30;;
6292;SDS011;3179;54.350;10.102;2023-07-20T03:12:42;1.50;;;1.40;;
6292;SDS011;3179;54.350;10.102;2023-07-20T03:15:10;1.27;;;1.00;;
6292;SDS011;3179;54.350;10.102;2023-07-20T03:17:37;1.47;;;1.37;;
6292;SDS011;3179;54.350;10.102;2023-07-20T03:20:04;1.90;;;1.07;;
6292;SDS011;3179;54.350;10.102;2023-07-20T03:22:34;5.53;;;1.17;;
6292;SDS011;3179;54.350;10.102;2023-07-20T03:25:01;1.23;;;0.90;;
6292;SDS011;3179;54.350;10.102;2023-07-20T03:27:27;1.17;;;1.10;;
6292;SDS011;3179;54.350;10.102;2023-07-20T03:29:54;1.77;;;1.10;;
6292;SDS011;3179;54.350;10.102;2023-07-20T03:32:22;1.20;;;1.10;;
6292;SDS011;3179;54.350;10.102;2023-07-20T03:34:49;1.40;;;1.30;;
6292;SDS011;3179;54.350;10.102;2023-07-20T03:37:16;1.13;;;1.03;;
6292;SDS011;3179;54.350;10.102;2023-07-20T03:39:43;2.80;;;0.90;;
6292;SDS011;3179;54.350;10.102;2023-07-20T03:42:09;1.27;;;1.20;;
6292;SDS011;3179;54.350;10.102;2023-07-20T03:44:36;1.27;;;0.80;;
6292;SDS011;3179;54.350;10.102;2023-07-20T03:47:04;3.93;;;1.10;;
6292;SDS011;3179;54.350;10.102;2023-07-20T03:49:33;2.63;;;1.50;;
6292;SDS011;3179;54.350;10.102;2023-07-20T03:52:00;0.90;;;0.90;;
6292;SDS011;3179;54.350;10.102;2023-07-20T03:54:28;1.10;;;1.10;;
6292;SDS011;3179;54.350;10.102;2023-07-20T03:56:55;1.00;;;1.00;;
6292;SDS011;3179;54.350;10.102;2023-07-20T03:59:21;1.07;;;0.70;;
6292;SDS011;3179;54.350;10.102;2023-07-20T04:01:48;0.97;;;0.87;;
6292;SDS011;3179;54.350;10.102;2023-07-20T04:04:15;1.23;;;1.00;;
6292;SDS011;3179;54.350;10.102;2023-07-20T04:06:44;0.80;;;0.80;;
6292;SDS011;3179;54.350;10.102;2023-07-20T04:09:11;2.00;;;1.00;;
6292;SDS011;3179;54.350;10.102;2023-07-20T04:11:38;0.70;;;0.63;;
6292;SDS011;3179;54.350;10.102;2023-07-20T04:14:05;0.97;;;0.90;;
6292;SDS011;3179;54.350;10.102;2023-07-20T04:16:32;1.17;;;0.80;;
6292;SDS011;3179;54.350;10.102;2023-07-20T04:18:59;0.80;;;0.60;;
6292;SDS011;3179;54.350;10.102;2023-07-20T04:21:27;1.10;;;0.70;;
6292;SDS011;3179;54.350;10.102;2023-07-20T04:23:55;0.80;;;0.80;;
6292;SDS011;3179;54.350;10.102;2023-07-20T04:26:22;1.53;;;0.97;;
6292;SDS011;3179;54.350;10.102;2023-07-20T04:28:49;0.90;;;0.90;;
6292;SDS011;3179;54.350;10.102;2023-07-20T04:31:17;5.67;;;0.90;;
6292;SDS011;3179;54.350;10.102;2023-07-20T04:33:44;0.70;;;0.70;;
6292;SDS011;3179;54.350;10.102;2023-07-20T04:36:11;2.93;;;0.90;;
6292;SDS011;3179;54.350;10.102;2023-07-20T04:38:39;0.90;;;0.90;;
6292;SDS011;3179;54.350;10.102;2023-07-20T04:41:08;0.90;;;0.80;;
6292;SDS011;3179;54.350;10.102;2023-07-20T04:43:41;0.70;;;0.70;;
6292;SDS011;3179;54.350;10.102;2023-07-20T04:46:08;1.20;;;0.70;;
6292;SDS011;3179;54.350;10.102;2023-07-20T04:48:35;1.60;;;0.70;;
6292;SDS011;3179;54.350;10.102;2023-07-20T04:51:02;1.37;;;0.90;;
6292;SDS011;3179;54.350;10.102;2023-07-20T04:53:29;0.70;;;0.70;;
6292;SDS011;3179;54.350;10.102;2023-07-20T04:55:56;0.67;;;0.67;;
6292;SDS011;3179;54.350;10.102;2023-07-20T04:58:24;2.77;;;0.87;;
6292;SDS011;3179;54.350;10.102;2023-07-20T05:00:51;3.87;;;0.80;;
6292;SDS011;3179;54.350;10.102;2023-07-20T05:03:18;1.07;;;0.70;;
6292;SDS011;3179;54.350;10.102;2023-07-20T05:05:46;2.70;;;1.10;;
6292;SDS011;3179;54.350;10.102;2023-07-20T05:08:13;3.83;;;0.70;;
6292;SDS011;3179;54.350;10.102;2023-07-20T05:10:39;0.93;;;0.90;;
6292;SDS011;3179;54.350;10.102;2023-07-20T05:13:06;0.60;;;0.60;;
6292;SDS011;3179;54.350;10.102;2023-07-20T05:15:34;4.43;;;1.10;;
6292;SDS011;3179;54.350;10.102;2023-07-20T05:18:01;0.93;;;0.67;;
6292;SDS011;3179;54.350;10.102;2023-07-20T05:20:28;1.20;;;1.00;;
6292;SDS011;3179;54.350;10.102;2023-07-20T05:22:56;0.97;;;0.87;;
6292;SDS011;3179;54.350;10.102;2023-07-20T05:25:23;0.70;;;0.70;;
6292;SDS011;3179;54.350;10.102;2023-07-20T05:27:50;0.73;;;0.63;;
6292;SDS011;3179;54.350;10.102;2023-07-20T05:30:17;2.83;;;0.80;;
6292;SDS011;3179;54.350;10.102;2023-07-20T05:32:46;0.93;;;0.57;;
6292;SDS011;3179;54.350;10.102;2023-07-20T05:35:16;0.70;;;0.70;;
6292;SDS011;3179;54.350;10.102;2023-07-20T05:37:43;1.67;;;1.10;;
6292;SDS011;3179;54.350;10.102;2023-07-20T05:40:10;0.90;;;0.73;;
6292;SDS011;3179;54.350;10.102;2023-07-20T05:42:37;3.13;;;1.00;;
6292;SDS011;3179;54.350;10.102;2023-07-20T05:45:05;1.53;;;1.07;;
6292;SDS011;3179;54.350;10.102;2023-07-20T05:47:32;6.73;;;0.93;;
6292;SDS011;3179;54.350;10.102;2023-07-20T05:50:00;1.30;;;1.10;;
6292;SDS011;3179;54.350;10.102;2023-07-20T05:52:28;2.53;;;1.00;;
6292;SDS011;3179;54.350;10.102;2023-07-20T05:54:55;1.50;;;1.10;;
6292;SDS011;3179;54.350;10.102;2023-07-20T05:57:22;1.30;;;1.00;;
6292;SDS011;3179;54.350;10.102;2023-07-20T05:59:48;2.53;;;1.20;;
6292;SDS011;3179;54.350;10.102;2023-07-20T06:02:15;1.03;;;1.03;;
6292;SDS011;3179;54.350;10.102;2023-07-20T06:04:42;1.07;;;1.07;;
6292;SDS011;3179;54.350;10.102;2023-07-20T06:07:10;2.43;;;1.10;;
6292;SDS011;3179;54.350;10.102;2023-07-20T06:09:37;1.73;;;1.60;;
6292;SDS011;3179;54.350;10.102;2023-07-20T06:12:04;2.70;;;1.30;;
6292;SDS011;3179;54.350;10.102;2023-07-20T06:14:32;3.13;;;1.77;;
6292;SDS011;3179;54.350;10.102;2023-07-20T06:16:59;2.70;;;1.80;;
6292;SDS011;3179;54.350;10.102;2023-07-20T06:19:26;3.33;;;1.50;;
6292;SDS011;3179;54.350;10.102;2023-07-20T06:21:53;2.93;;;1.40;;
6292;SDS011;3179;54.350;10.102;2023-07-20T06:24:21;3.10;;;1.80;;
6292;SDS011;3179;54.350;10.102;2023-07-20T06:26:47;1.40;;;1.27;;
6292;SDS011;3179;54.350;10.102;2023-07-20T06:29:14;3.03;;;1.60;;
6292;SDS011;3179;54.350;10.102;2023-07-20T06:31:41;4.40;;;1.50;;
6292;SDS011;3179;54.350;10.102;2023-07-20T06:34:08;3.70;;;1.67;;
6292;SDS011;3179;54.350;10.102;2023-07-20T06:36:34;2.50;;;1.43;;
6292;SDS011;3179;54.350;10.102;2023-07-20T06:39:01;4.93;;;1.57;;
6292;SDS011;3179;54.350;10.102;2023-07-20T06:41:29;3.57;;;1.70;;
6292;SDS011;3179;54.350;10.102;2023-07-20T06:43:56;5.27;;;2.00;;
6292;SDS011;3179;54.350;10.102;2023-07-20T06:46:24;3.47;;;1.60;;
6292;SDS011;3179;54.350;10.102;2023-07-20T06:48:51;2.83;;;1.90;;
6292;SDS011;3179;54.350;10.102;2023-07-20T06:51:18;4.40;;;2.27;;
6292;SDS011;3179;54.350;10.102;2023-07-20T06:53:45;2.33;;;1.67;;
6292;SDS011;3179;54.350;10.102;2023-07-20T06:56:12;3.07;;;1.73;;
6292;SDS011;3179;54.350;10.102;2023-07-20T06:58:40;2.40;;;1.73;;
6292;SDS011;3179;54.350;10.102;2023-07-20T07:01:07;2.80;;;1.83;;
6292;SDS011;3179;54.350;10.102;2023-07-20T07:03:35;4.33;;;1.70;;
6292;SDS011;3179;54.350;10.102;2023-07-20T07:06:02;1.93;;;1.40;;
6292;SDS011;3179;54.350;10.102;2023-07-20T07:08:29;3.83;;;1.83;;
6292;SDS011;3179;54.350;10.102;2023-07-20T07:10:56;3.37;;;2.00;;
6292;SDS011;3179;54.350;10.102;2023-07-20T07:13:23;4.83;;;1.70;;
6292;SDS011;3179;54.350;10.102;2023-07-20T07:15:51;1.53;;;1.23;;
6292;SDS011;3179;54.350;10.102;2023-07-20T07:18:18;2.90;;;1.70;;
6292;SDS011;3179;54.350;10.102;2023-07-20T07:20:50;3.00;;;1.57;;
6292;SDS011;3179;54.350;10.102;2023-07-20T07:23:17;6.43;;;1.87;;
6292;SDS011;3179;54.350;10.102;2023-07-20T07:25:44;4.27;;;1.63;;
6292;SDS011;3179;54.350;10.102;2023-07-20T07:28:12;3.23;;;2.10;;
6292;SDS011;3179;54.350;10.102;2023-07-20T07:30:39;2.90;;;2.13;;
6292;SDS011;3179;54.350;10.102;2023-07-20T07:33:07;2.10;;;1.80;;
6292;SDS011;3179;54.350;10.102;2023-07-20T07:35:35;4.47;;;1.53;;
6292;SDS011;3179;54.350;10.102;2023-07-20T07:38:01;3.30;;;1.40;;
6292;SDS011;3179;54.350;10.102;2023-07-20T07:40:28;3.67;;;1.33;;
6292;SDS011;3179;54.350;10.102;2023-07-20T07:42:55;2.63;;;1.60;;
6292;SDS011;3179;54.350;10.102;2023-07-20T07:45:22;3.10;;;1.57;;
6292;SDS011;3179;54.350;10.102;2023-07-20T07:47:48;9.40;;;1.67;;
6292;SDS011;3179;54.350;10.102;2023-07-20T07:50:17;2.87;;;1.40;;
6292;SDS011;3179;54.350;10.102;2023-07-20T07:52:43;6.37;;;1.70;;
6292;SDS011;3179;54.350;10.102;2023-07-20T07:55:10;4.00;;;1.50;;
6292;SDS011;3179;54.350;10.102;2023-07-20T07:57:37;3.33;;;1.50;;
6292;SDS011;3179;54.350;10.102;2023-07-20T08:00:04;10.63;;;1.60;;
6292;SDS011;3179;54.350;10.102;2023-07-20T08:02:36;4.90;;;1.80;;
6292;SDS011;3179;54.350;10.102;2023-07-20T08:05:03;6.77;;;1.90;;
6292;SDS011;3179;54.350;10.102;2023-07-20T08:07:34;4.63;;;1.47;;
6292;SDS011;3179;54.350;10.102;2023-07-20T08:10:01;2.60;;;1.07;;
6292;SDS011;3179;54.350;10.102;2023-07-20T08:12:28;3.80;;;1.87;;
6292;SDS011;3179;54.350;10.102;2023-07-20T08:14:55;4.40;;;1.53;;
6292;SDS011;3179;54.350;10.102;2023-07-20T08:17:21;4.37;;;1.40;;
6292;SDS011;3179;54.350;10.102;2023-07-20T08:19:48;4.20;;;1.33;;
6292;SDS011;3179;54.350;10.102;2023-07-20T08:22:15;11.30;;;1.77;;
6292;SDS011;3179;54.350;10.102;2023-07-20T08:24:43;3.20;;;1.40;;
6292;SDS011;3179;54.350;10.102;2023-07-20T08:27:10;2.50;;;1.10;;
6292;SDS011;3179;54.350;10.102;2023-07-20T08:29:37;2.20;;;1.00;;
6292;SDS011;3179;54.350;10.102;2023-07-20T08:32:05;1.90;;;0.90;;
6292;SDS011;3179;54.350;10.102;2023-07-20T08:34:32;4.00;;;0.87;;
6292;SDS011;3179;54.350;10.102;2023-07-20T08:36:59;2.83;;;1.00;;
6292;SDS011;3179;54.350;10.102;2023-07-20T08:39:26;1.80;;;0.80;;
6292;SDS011;3179;54.350;10.102;2023-07-20T08:41:54;1.53;;;0.80;;
6292;SDS011;3179;54.350;10.102;2023-07-20T08:44:21;1.80;;;1.00;;
6292;SDS011;3179;54.350;10.102;2023-07-20T08:46:49;3.13;;;1.30;;
6292;SDS011;3179;54.350;10.102;2023-07-20T08:49:17;3.33;;;1.07;;
6292;SDS011;3179;54.350;10.102;2023-07-20T08:51:45;2.17;;;0.83;;
6292;SDS011;3179;54.350;10.102;2023-07-20T08:54:14;2.03;;;1.00;;
6292;SDS011;3179;54.350;10.102;2023-07-20T08:56:42;2.10;;;1.10;;
6292;SDS011;3179;54.350;10.102;2023-07-20T08:59:12;2.33;;;0.80;;
6292;SDS011;3179;54.350;10.102;2023-07-20T09:01:42;1.47;;;0.70;;
6292;SDS011;3179;54.350;10.102;2023-07-20T09:04:10;2.90;;;1.13;;
6292;SDS011;3179;54.350;10.102;2023-07-20T09:06:38;1.40;;;0.80;;
6292;SDS011;3179;54.350;10.102;2023-07-20T09:09:04;1.10;;;0.63;;
6292;SDS011;3179;54.350;10.102;2023-07-20T09:11:31;2.10;;;0.70;;
6292;SDS011;3179;54.350;10.102;2023-07-20T09:14:05;3.40;;;0.70;;
6292;SDS011;3179;54.350;10.102;2023-07-20T09:16:34;4.60;;;0.90;;
6292;SDS011;3179;54.350;10.102;2023-07-20T09:19:14;1.27;;;0.60;;
6292;SDS011;3179;54.350;10.102;2023-07-20T09:21:43;1.57;;;0.87;;
6292;SDS011;3179;54.350;10.102;2023-07-20T09:24:10;0.83;;;0.53;;
6292;SDS011;3179;54.350;10.102;2023-07-20T09:26:40;1.87;;;0.90;;
6292;SDS011;3179;54.350;10.102;2023-07-20T09:29:08;3.43;;;0.93;;
6292;SDS011;3179;54.350;10.102;2023-07-20T09:31:36;2.97;;;1.10;;
6292;SDS011;3179;54.350;10.102;2023-07-20T09:34:05;3.10;;;0.80;;
6292;SDS011;3179;54.350;10.102;2023-07-20T09:36:33;1.87;;;0.80;;
6292;SDS011;3179;54.350;10.102;2023-07-20T09:39:00;1.97;;;0.80;;
6292;SDS011;3179;54.350;10.102;2023-07-20T09:41:27;0.70;;;0.57;;
6292;SDS011;3179;54.350;10.102;2023-07-20T09:43:53;4.93;;;1.00;;
6292;SDS011;3179;54.350;10.102;2023-07-20T09:46:20;0.57;;;0.57;;
6292;SDS011;3179;54.350;10.102;2023-07-20T09:48:58;1.40;;;0.63;;
6292;SDS011;3179;54.350;10.102;2023-07-20T09:51:25;0.60;;;0.40;;
6292;SDS011;3179;54.350;10.102;2023-07-20T09:53:52;2.07;;;1.40;;
6292;SDS011;3179;54.350;10.102;2023-07-20T09:56:21;0.87;;;0.43;;
6292;SDS011;3179;54.350;10.102;2023-07-20T09:58:48;2.33;;;0.50;;
6292;SDS011;3179;54.350;10.102;2023-07-20T10:01:16;1.37;;;0.40;;
6292;SDS011;3179;54.350;10.102;2023-07-20T10:03:47;0.50;;;0.40;;
6292;SDS011;3179;54.350;10.102;2023-07-20T10:06:17;1.23;;;0.70;;
6292;SDS011;3179;54.350;10.102;2023-07-20T10:08:49;1.00;;;0.53;;
6292;SDS011;3179;54.350;10.102;2023-07-20T10:11:19;1.30;;;0.50;;
6292;SDS011;3179;54.350;10.102;2023-07-20T10:13:50;0.50;;;0.40;;
6292;SDS011;3179;54.350;10.102;2023-07-20T10:16:20;0.80;;;0.50;;
6292;SDS011;3179;54.350;10.102;2023-07-20T10:18:51;1.53;;;0.50;;
6292;SDS011;3179;54.350;10.102;2023-07-20T10:21:26;1.43;;;0.50;;
6292;SDS011;3179;54.350;10.102;2023-07-20T10:23:56;1.47;;;0.70;;
6292;SDS011;3179;54.350;10.102;2023-07-20T10:26:23;1.20;;;0.60;;
6292;SDS011;3179;54.350;10.102;2023-07-20T10:28:53;1.27;;;0.70;;
6292;SDS011;3179;54.350;10.102;2023-07-20T10:31:20;3.20;;;0.80;;
6292;SDS011;3179;54.350;10.102;2023-07-20T10:33:51;1.77;;;0.50;;
6292;SDS011;3179;54.350;10.102;2023-07-20T10:36:22;1.80;;;0.80;;
6292;SDS011;3179;54.350;10.102;2023-07-20T10:38:53;1.13;;;0.60;;
6292;SDS011;3179;54.350;10.102;2023-07-20T10:41:22;0.90;;;0.80;;
6292;SDS011;3179;54.350;10.102;2023-07-20T10:43:57;1.77;;;0.90;;
6292;SDS011;3179;54.350;10.102;2023-07-20T10:46:35;2.50;;;0.90;;
6292;SDS011;3179;54.350;10.102;2023-07-20T10:49:10;3.60;;;1.03;;
6292;SDS011;3179;54.350;10.102;2023-07-20T10:51:41;1.60;;;0.87;;
6292;SDS011;3179;54.350;10.102;2023-07-20T10:54:12;1.63;;;1.00;;
6292;SDS011;3179;54.350;10.102;2023-07-20T10:57:22;2.40;;;1.13;;
6292;SDS011;3179;54.350;10.102;2023-07-20T10:59:50;2.83;;;1.00;;
6292;SDS011;3179;54.350;10.102;2023-07-20T11:02:18;2.53;;;0.90;;
6292;SDS011;3179;54.350;10.102;2023-07-20T11:04:46;2.93;;;1.03;;
6292;SDS011;3179;54.350;10.102;2023-07-20T11:07:17;1.47;;;1.00;;
6292;SDS011;3179;54.350;10.102;2023-07-20T11:09:46;1.70;;;0.93;;
6292;SDS011;3179;54.350;10.102;2023-07-20T11:12:13;2.10;;;1.10;;
6292;SDS011;3179;54.350;10.102;2023-07-20T11:14:43;1.33;;;0.80;;
6292;SDS011;3179;54.350;10.102;2023-07-20T11:17:19;1.60;;;0.80;;
6292;SDS011;3179;54.350;10.102;2023-07-20T11:19:47;2.33;;;1.03;;
6292;SDS011;3179;54.350;10.102;2023-07-20T11:22:16;3.07;;;1.20;;
6292;SDS011;3179;54.350;10.102;2023-07-20T11:24:43;2.50;;;1.00;;
6292;SDS011;3179;54.350;10.102;2023-07-20T11:27:10;2.30;;;0.80;;
6292;SDS011;3179;54.350;10.102;2023-07-20T11:29:37;2.93;;;0.90;;
6292;SDS011;3179;54.350;10.102;2023-07-20T11:32:05;0.80;;;0.60;;
6292;SDS011;3179;54.350;10.102;2023-07-20T11:34:33;2.40;;;1.10;;
6292;SDS011;3179;54.350;10.102;2023-07-20T11:37:01;3.43;;;1.10;;
6292;SDS011;3179;54.350;10.102;2023-07-20T11:39:29;1.30;;;0.83;;
6292;SDS011;3179;54.350;10.102;2023-07-20T11:41:56;5.77;;;1.20;;
6292;SDS011;3179;54.350;10.102;2023-07-20T11:44:24;3.87;;;1.40;;
6292;SDS011;3179;54.350;10.102;2023-07-20T11:46:59;2.20;;;0.93;;
6292;SDS011;3179;54.350;10.102;2023-07-20T11:49:28;4.07;;;0.90;;
6292;SDS011;3179;54.350;10.102;2023-07-20T11:51:55;1.67;;;1.03;;
6292;SDS011;3179;54.350;10.102;2023-07-20T11:54:23;2.50;;;0.83;;
6292;SDS011;3179;54.350;10.102;2023-07-20T11:56:53;2.30;;;0.80;;
6292;SDS011;3179;54.350;10.102;2023-07-20T11:59:20;2.27;;;1.00;;
6292;SDS011;3179;54.350;10.102;2023-07-20T12:01:46;0.90;;;0.73;;
6292;SDS011;3179;54.350;10.102;2023-07-20T12:04:13;3.53;;;1.37;;
6292;SDS011;3179;54.350;10.102;2023-07-20T12:06:41;2.10;;;1.03;;
6292;SDS011;3179;54.350;10.102;2023-07-20T12:09:12;4.90;;;1.13;;
6292;SDS011;3179;54.350;10.102;2023-07-20T12:11:42;3.20;;;1.30;;
6292;SDS011;3179;54.350;10.102;2023-07-20T12:14:10;1.83;;;1.03;;
6292;SDS011;3179;54.350;10.102;2023-07-20T12:16:37;5.23;;;1.17;;
6292;SDS011;3179;54.350;10.102;2023-07-20T12:19:04;3.50;;;0.87;;
6292;SDS011;3179;54.350;10.102;2023-07-20T12:21:33;3.10;;;1.10;;
6292;SDS011;3179;54.350;10.102;2023-07-20T12:24:03;4.17;;;1.10;;
6292;SDS011;3179;54.350;10.102;2023-07-20T12:26:30;3.07;;;1.17;;
6292;SDS011;3179;54.350;10.102;2023-07-20T12:28:58;4.60;;;1.60;;
6292;SDS011;3179;54.350;10.102;2023-07-20T12:31:26;4.13;;;0.90;;
6292;SDS011;3179;54.350;10.102;2023-07-20T12:33:54;3.83;;;1.07;;
6292;SDS011;3179;54.350;10.102;2023-07-20T12:36:23;2.60;;;1.37;;
6292;SDS011;3179;54.350;10.102;2023-07-20T12:38:50;2.80;;;1.00;;
6292;SDS011;3179;54.350;10.102;2023-07-20T12:41:18;1.87;;;0.83;;
6292;SDS011;3179;54.350;10.102;2023-07-20T12:43:46;1.77;;;1.07;;
6292;SDS011;3179;54.350;10.102;2023-07-20T12:46:15;3.40;;;1.60;;
6292;SDS011;3179;54.350;10.102;2023-07-20T12:48:46;1.10;;;0.70;;
6292;SDS011;3179;54.350;10.102;2023-07-20T12:51:14;2.00;;;1.33;;
6292;SDS011;3179;54.350;10.102;2023-07-20T12:53:42;4.50;;;1.13;;
6292;SDS011;3179;54.350;10.102;2023-07-20T12:56:13;2.67;;;1.27;;
6292;SDS011;3179;54.350;10.102;2023-07-20T12:58:42;3.23;;;1.00;;
6292;SDS011;3179;54.350;10.102;2023-07-20T13:01:09;1.60;;;0.87;;
6292;SDS011;3179;54.350;10.102;2023-07-20T13:03:40;3.90;;;0.90;;
6292;SDS011;3179;54.350;10.102;2023-07-20T13:06:09;2.20;;;0.80;;
6292;SDS011;3179;54.350;10.102;2023-07-20T13:08:38;3.33;;;1.10;;
6292;SDS011;3179;54.350;10.102;2023-07-20T13:11:05;2.70;;;1.50;;
6292;SDS011;3179;54.350;10.102;2023-07-20T13:13:32;3.43;;;1.27;;
6292;SDS011;3179;54.350;10.102;2023-07-20T13:16:00;1.40;;;0.90;;
6292;SDS011;3179;54.350;10.102;2023-07-20T13:18:27;2.53;;;1.00;;
6292;SDS011;3179;54.350;10.102;2023-07-20T13:20:54;1.37;;;1.00;;
6292;SDS011;3179;54.350;10.102;2023-07-20T13:23:21;2.03;;;1.13;;
6292;SDS011;3179;54.350;10.102;2023-07-20T13:25:48;1.53;;;0.80;;
6292;SDS011;3179;54.350;10.102;2023-07-20T13:28:15;1.37;;;0.70;;
6292;SDS011;3179;54.350;10.102;2023-07-20T13:30:41;0.87;;;0.50;;
6292;SDS011;3179;54.350;10.102;2023-07-20T13:33:11;2.53;;;0.90;;
6292;SDS011;3179;54.350;10.102;2023-07-20T13:35:38;5.47;;;0.90;;
6292;SDS011;3179;54.350;10.102;2023-07-20T13:38:05;4.20;;;1.03;;
6292;SDS011;3179;54.350;10.102;2023-07-20T13:40:31;2.93;;;1.00;;
6292;SDS011;3179;54.350;10.102;2023-07-20T13:42:58;1.13;;;0.70;;
6292;SDS011;3179;54.350;10.102;2023-07-20T13:45:25;1.27;;;0.90;;
6292;SDS011;3179;54.350;10.102;2023-07-20T13:47:52;1.53;;;0.70;;
6292;SDS011;3179;54.350;10.102;2023-07-20T13:50:20;1.53;;;1.00;;
6292;SDS011;3179;54.350;10.102;2023-07-20T13:52:46;3.27;;;0.97;;
6292;SDS011;3179;54.350;10.102;2023-07-20T13:55:13;3.43;;;1.00;;
6292;SDS011;3179;54.350;10.102;2023-07-20T13:57:40;1.13;;;0.80;;
6292;SDS011;3179;54.350;10.102;2023-07-20T14:00:07;2.30;;;1.00;;
6292;SDS011;3179;54.350;10.102;2023-07-20T14:02:36;5.43;;;1.40;;
6292;SDS011;3179;54.350;10.102;2023-07-20T14:05:02;2.53;;;0.80;;
6292;SDS011;3179;54.350;10.102;2023-07-20T14:07:31;1.00;;;0.80;;
6292;SDS011;3179;54.350;10.102;2023-07-20T14:09:58;1.50;;;0.83;;
6292;SDS011;3179;54.350;10.102;2023-07-20T14:12:25;1.57;;;0.70;;
6292;SDS011;3179;54.350;10.102;2023-07-20T14:14:52;2.73;;;0.90;;
6292;SDS011;3179;54.350;10.102;2023-07-20T14:17:20;1.10;;;1.10;;
6292;SDS011;3179;54.350;10.102;2023-07-20T14:19:47;1.17;;;0.80;;
6292;SDS011;3179;54.350;10.102;2023-07-20T14:22:13;1.50;;;1.10;;
6292;SDS011;3179;54.350;10.102;2023-07-20T14:24:42;3.33;;;0.80;;
6292;SDS011;3179;54.350;10.102;2023-07-20T14:27:08;1.43;;;0.70;;
6292;SDS011;3179;54.350;10.102;2023-07-20T14:29:36;1.87;;;0.87;;
6292;SDS011;3179;54.350;10.102;2023-07-20T14:32:03;0.60;;;0.60;;
6292;SDS011;3179;54.350;10.102;2023-07-20T14:34:31;4.50;;;1.00;;
6292;SDS011;3179;54.350;10.102;2023-07-20T14:36:58;1.03;;;0.70;;
6292;SDS011;3179;54.350;10.102;2023-07-20T14:39:26;2.13;;;0.73;;
6292;SDS011;3179;54.350;10.102;2023-07-20T14:41:54;2.10;;;0.83;;
6292;SDS011;3179;54.350;10.102;2023-07-20T14:44:20;2.50;;;0.80;;
6292;SDS011;3179;54.350;10.102;2023-07-20T14:46:47;2.00;;;1.00;;
6292;SDS011;3179;54.350;10.102;2023-07-20T14:49:14;2.03;;;0.93;;
6292;SDS011;3179;54.350;10.102;2023-07-20T14:51:41;3.83;;;1.10;;
6292;SDS011;3179;54.350;10.102;2023-07-20T14:54:11;1.90;;;1.03;;
6292;SDS011;3179;54.350;10.102;2023-07-20T14:56:39;1.13;;;0.60;;
6292;SDS011;3179;54.350;10.102;2023-07-20T14:59:07;2.73;;;0.90;;
6292;SDS011;3179;54.350;10.102;2023-07-20T15:01:33;2.50;;;1.00;;
6292;SDS011;3179;54.350;10.102;2023-07-20T15:04:00;1.67;;;0.90;;
6292;SDS011;3179;54.350;10.102;2023-07-20T15:06:29;0.70;;;0.60;;
6292;SDS011;3179;54.350;10.102;2023-07-20T15:08:57;1.10;;;0.70;;